createdAt,value
2018-09-06T00:02:47.180Z,64.80
2018-09-06T00:07:50.348Z,65.40
2018-09-06T00:12:53.428Z,64.80
2018-09-06T00:17:56.482Z,64.70
2018-09-06T00:22:59.584Z,64.40
2018-09-06T00:28:03.462Z,64.00
2018-09-06T00:33:06.731Z,64.10
2018-09-06T00:38:09.737Z,65.00
2018-09-06T00:43:13.284Z,64.80
2018-09-06T00:48:16.325Z,65.00
2018-09-06T00:53:19.385Z,65.50
2018-09-06T00:58:22.407Z,65.70
2018-09-06T01:03:25.590Z,66.30
2018-09-06T01:08:28.797Z,66.40
2018-09-06T01:13:31.811Z,66.30
2018-09-06T01:18:35.080Z,66.40
2018-09-06T01:23:38.740Z,66.40
2018-09-06T01:28:41.937Z,66.50
2018-09-06T01:33:44.935Z,66.70
2018-09-06T01:38:48.029Z,66.80
2018-09-06T01:43:51.267Z,66.80
2018-09-06T01:48:54.289Z,67.00
2018-09-06T01:53:57.328Z,67.70
2018-09-06T01:59:00.395Z,67.90
2018-09-06T02:04:04.960Z,68.50
2018-09-06T02:09:08.940Z,69.10
2018-09-06T02:14:12.199Z,69.50
2018-09-06T02:19:15.226Z,69.70
2018-09-06T02:24:18.468Z,70.30
2018-09-06T02:29:21.632Z,70.30
2018-09-06T02:34:24.589Z,70.20
2018-09-06T02:39:27.575Z,69.70
2018-09-06T02:44:30.664Z,69.50
2018-09-06T02:49:39.344Z,69.30
2018-09-06T02:54:42.437Z,69.30
2018-09-06T02:59:46.433Z,69.30
2018-09-06T03:04:49.438Z,69.30
2018-09-06T03:09:52.572Z,69.10
2018-09-06T03:14:55.602Z,69.30
2018-09-06T03:19:58.622Z,69.60
2018-09-06T03:25:02.743Z,69.60
2018-09-06T03:30:06.643Z,69.50
2018-09-06T03:35:09.964Z,69.50
2018-09-06T03:40:13.092Z,69.90
2018-09-06T03:45:16.234Z,70.60
2018-09-06T03:50:19.261Z,71.10
2018-09-06T03:55:22.307Z,71.00
2018-09-06T04:00:25.796Z,71.70
2018-09-06T04:05:28.801Z,72.10
2018-09-06T04:10:31.777Z,72.60
2018-09-06T04:15:34.760Z,72.70
2018-09-06T04:20:37.739Z,72.30
2018-09-06T04:25:41.036Z,72.30
2018-09-06T04:30:44.167Z,72.70
2018-09-06T04:35:47.169Z,73.00
2018-09-06T04:40:50.128Z,72.70
2018-09-06T04:45:53.117Z,72.60
2018-09-06T04:50:56.131Z,72.40
2018-09-06T04:55:59.348Z,73.70
2018-09-06T05:01:03.376Z,74.50
2018-09-06T05:06:06.380Z,74.40
2018-09-06T05:11:09.404Z,73.40
2018-09-06T05:16:12.400Z,72.90
2018-09-06T05:21:15.400Z,71.50
2018-09-06T05:26:18.590Z,70.80
2018-09-06T05:31:21.684Z,69.80
2018-09-06T05:36:24.888Z,69.30
2018-09-06T05:41:28.074Z,67.40
2018-09-06T05:46:31.168Z,68.00
2018-09-06T05:51:34.852Z,67.10
2018-09-06T05:56:38.217Z,64.50
2018-09-06T06:01:41.277Z,63.30
2018-09-06T06:06:44.441Z,62.50
2018-09-06T06:11:47.527Z,61.00
2018-09-06T06:16:50.561Z,60.60
2018-09-06T06:21:53.820Z,59.60
2018-09-06T06:26:56.836Z,58.80
2018-09-06T06:31:59.941Z,59.80
2018-09-06T06:37:04.569Z,59.70
2018-09-06T06:42:07.764Z,59.10
2018-09-06T06:47:10.756Z,58.90
2018-09-06T06:52:14.053Z,57.50
2018-09-06T06:57:17.036Z,57.00
2018-09-06T07:02:20.199Z,56.30
2018-09-06T07:07:23.391Z,58.10
2018-09-06T07:12:26.726Z,59.60
2018-09-06T07:17:30.025Z,60.00
2018-09-06T07:22:33.021Z,61.70
2018-09-06T07:27:35.996Z,61.90
2018-09-06T07:38:11.737Z,62.20
2018-09-06T07:43:15.072Z,62.00
2018-09-06T07:48:18.377Z,62.30
2018-09-06T07:53:21.522Z,62.10
2018-09-06T07:58:24.711Z,62.70
2018-09-06T08:03:27.866Z,62.30
2018-09-06T08:08:30.909Z,62.40
2018-09-06T08:13:34.218Z,61.00
2018-09-06T08:18:37.392Z,59.10
2018-09-06T08:23:40.659Z,57.70
2018-09-06T08:28:43.806Z,56.00
2018-09-06T08:33:47.267Z,54.80
2018-09-06T08:38:50.529Z,55.40
2018-09-06T08:43:53.802Z,56.60
2018-09-06T08:48:56.984Z,54.20
2018-09-06T08:54:01.639Z,53.30
2018-09-06T08:59:05.257Z,54.00
2018-09-06T09:04:08.869Z,54.20
2018-09-06T09:09:13.749Z,52.10
2018-09-06T09:14:16.842Z,52.10
2018-09-06T09:19:19.915Z,52.50
2018-09-06T09:24:23.185Z,51.60
2018-09-06T09:29:26.307Z,50.00
2018-09-06T09:34:29.486Z,49.20
2018-09-06T09:39:32.744Z,48.10
2018-09-06T09:44:35.845Z,48.70
2018-09-06T09:49:38.958Z,50.60
2018-09-06T09:54:42.031Z,51.70
2018-09-06T09:59:45.249Z,51.80
2018-09-06T10:04:54.401Z,52.00
2018-09-06T10:09:57.511Z,51.40
2018-09-06T10:15:03.325Z,52.30
2018-09-06T10:20:06.791Z,54.20
2018-09-06T10:25:09.887Z,55.10
2018-09-06T10:30:13.250Z,56.50
2018-09-06T10:35:16.427Z,56.00
2018-09-06T10:40:19.588Z,55.10
2018-09-06T10:45:22.815Z,54.20
2018-09-06T10:50:25.953Z,53.70
2018-09-06T10:55:29.182Z,53.80
2018-09-06T11:00:32.328Z,53.80
2018-09-06T11:05:35.983Z,52.90
2018-09-06T11:10:39.198Z,53.40
2018-09-06T11:15:42.287Z,52.60
2018-09-06T11:20:45.371Z,52.00
2018-09-06T11:25:48.486Z,52.10
2018-09-06T11:30:51.564Z,50.60
2018-09-06T11:35:54.908Z,49.10
2018-09-06T11:40:58.182Z,49.10
2018-09-06T11:46:03.310Z,46.50
2018-09-06T11:51:07.580Z,46.20
2018-09-06T11:56:10.687Z,45.70
2018-09-06T12:01:13.889Z,46.90
2018-09-06T12:06:17.125Z,46.50
2018-09-06T12:11:20.202Z,46.30
2018-09-06T12:16:23.487Z,46.40
2018-09-06T12:21:26.798Z,46.70
2018-09-06T12:26:29.986Z,46.50
2018-09-06T12:31:33.167Z,46.20
2018-09-06T12:36:36.436Z,45.90
2018-09-06T12:41:40.479Z,45.50
2018-09-06T12:46:43.800Z,46.10
2018-09-06T12:51:47.268Z,45.30
2018-09-06T12:56:50.305Z,46.10
2018-09-06T13:01:53.402Z,45.00
2018-09-06T13:06:56.701Z,45.20
2018-09-06T13:11:59.968Z,45.30
2018-09-06T13:17:04.672Z,44.60
2018-09-06T13:22:08.200Z,45.10
2018-09-06T13:27:11.675Z,45.30
2018-09-06T13:32:15.038Z,46.10
2018-09-06T13:37:18.196Z,46.70
2018-09-06T13:42:21.361Z,46.60
2018-09-06T13:47:24.523Z,46.90
2018-09-06T13:52:27.837Z,47.60
2018-09-06T13:57:30.914Z,48.00
2018-09-06T14:02:33.958Z,48.40
2018-09-06T14:07:37.019Z,50.10
2018-09-06T14:12:40.139Z,53.30
2018-09-06T14:17:43.248Z,54.60
2018-09-06T14:22:46.506Z,54.50
2018-09-06T14:27:49.613Z,55.20
2018-09-06T14:32:53.033Z,56.20
2018-09-06T14:37:56.342Z,56.70
2018-09-06T14:42:59.619Z,59.00
2018-09-06T14:48:04.765Z,62.40
2018-09-06T14:53:07.965Z,63.10
2018-09-06T14:58:11.230Z,62.90
2018-09-06T15:03:14.659Z,63.70
2018-09-06T15:08:17.785Z,63.00
2018-09-06T15:13:21.281Z,60.90
2018-09-06T15:18:24.442Z,63.10
2018-09-06T15:23:27.786Z,61.00
2018-09-06T15:28:30.892Z,61.50
2018-09-06T15:33:33.972Z,59.80
2018-09-06T15:38:38.167Z,60.70
2018-09-06T15:43:41.670Z,59.70
2018-09-06T15:48:44.782Z,59.40
2018-09-06T15:53:47.889Z,58.90
2018-09-06T15:58:51.012Z,60.10
2018-09-06T16:03:54.196Z,60.00
2018-09-06T16:08:57.268Z,58.70
2018-09-06T16:14:00.500Z,58.60
2018-09-06T16:19:05.681Z,58.20
2018-09-06T16:24:08.878Z,58.30
2018-09-06T16:29:12.022Z,58.30
2018-09-06T16:34:15.168Z,57.90
2018-09-06T16:39:18.297Z,58.50
2018-09-06T16:44:21.586Z,58.50
2018-09-06T16:49:24.827Z,59.00
2018-09-06T16:54:27.934Z,59.60
2018-09-06T16:59:31.130Z,59.70
2018-09-06T17:04:34.443Z,60.60
2018-09-06T17:09:38.040Z,60.80
2018-09-06T17:14:41.627Z,61.70
2018-09-06T17:19:44.951Z,62.60
2018-09-06T17:24:48.037Z,61.90
2018-09-06T17:29:51.388Z,61.60
2018-09-06T17:34:56.028Z,61.70
2018-09-06T17:40:00.278Z,61.70
2018-09-06T17:45:05.178Z,62.30
2018-09-06T17:50:08.234Z,62.80
2018-09-06T17:55:11.486Z,62.50
2018-09-06T18:00:14.709Z,62.30
2018-09-06T18:05:18.068Z,62.90
2018-09-06T18:10:21.156Z,62.60
2018-09-06T18:15:24.314Z,63.90
2018-09-06T18:20:27.688Z,65.20
2018-09-06T18:25:31.046Z,66.30
2018-09-06T18:30:34.265Z,70.10
2018-09-06T18:35:37.399Z,73.30
2018-09-06T18:40:40.526Z,73.40
2018-09-06T18:45:43.624Z,73.30
2018-09-06T18:50:47.318Z,75.20
2018-09-06T18:55:50.553Z,77.30
2018-09-06T19:00:53.679Z,77.00
2018-09-06T19:05:56.752Z,77.10
2018-09-06T19:11:00.187Z,80.30
2018-09-06T19:16:03.473Z,80.90
2018-09-06T19:21:07.111Z,77.30
2018-09-06T19:26:10.291Z,78.40
2018-09-06T19:31:14.031Z,79.90
2018-09-06T19:36:17.114Z,80.70
2018-09-06T19:41:20.258Z,80.20
2018-09-06T19:46:23.433Z,80.10
2018-09-06T19:51:26.645Z,79.10
2018-09-06T19:56:29.745Z,79.20
2018-09-06T20:01:33.200Z,78.30
2018-09-06T20:06:36.502Z,79.80
2018-09-06T20:11:39.870Z,80.30
2018-09-06T20:16:43.012Z,80.30
2018-09-06T20:21:46.152Z,80.50
2018-09-06T20:26:49.640Z,79.40
2018-09-06T20:31:52.711Z,79.30
2018-09-06T20:36:55.841Z,79.50
2018-09-06T20:41:59.010Z,78.60
2018-09-06T20:52:12.325Z,79.20
2018-09-06T20:57:15.576Z,79.10
2018-09-06T21:02:21.078Z,79.10
2018-09-06T21:07:24.255Z,78.70
2018-09-06T21:12:27.321Z,79.20
2018-09-06T21:17:30.430Z,79.30
2018-09-06T21:22:33.533Z,79.30
2018-09-06T21:27:36.719Z,79.50
2018-09-06T21:32:40.062Z,79.80
2018-09-06T21:37:43.873Z,79.80
2018-09-06T21:42:46.943Z,79.90
2018-09-06T21:47:50.020Z,79.60
2018-09-06T21:52:53.046Z,79.30
2018-09-06T21:57:56.179Z,79.10
2018-09-06T22:03:05.197Z,78.70
2018-09-06T22:08:08.322Z,78.90
2018-09-06T22:13:11.565Z,78.80
2018-09-06T22:18:14.674Z,78.70
2018-09-06T22:23:18.000Z,78.70
2018-09-06T22:28:21.107Z,78.50
2018-09-06T22:33:24.410Z,79.20
2018-09-06T22:38:27.727Z,80.10
2018-09-06T22:43:31.221Z,79.60
2018-09-06T22:48:34.411Z,80.20
2018-09-06T22:53:37.608Z,79.80
2018-09-06T22:58:40.715Z,80.20
2018-09-06T23:03:44.421Z,80.40
2018-09-06T23:08:47.711Z,80.40
2018-09-06T23:13:50.995Z,80.80
2018-09-06T23:18:54.099Z,81.70
2018-09-06T23:23:57.311Z,81.10
2018-09-06T23:29:00.458Z,81.00
2018-09-06T23:34:05.431Z,80.70
2018-09-06T23:39:08.700Z,80.20
2018-09-06T23:44:11.887Z,79.90
2018-09-06T23:49:14.995Z,80.40
2018-09-06T23:54:18.435Z,80.30
2018-09-06T23:59:21.551Z,81.10
